sensor_id;sensor_type;location;lat;lon;timestamp;P1;durP1;ratioP1;P2;durP2;ratioP2
66628;SDS011;53532;53.084;6.352;2022-09-13T00:00:50;34.92;;;26.95;;
66628;SDS011;53532;53.084;6.352;2022-09-13T00:03:16;38.65;;;28.20;;
66628;SDS011;53532;53.084;6.352;2022-09-13T00:05:42;38.22;;;27.95;;
66628;SDS011;53532;53.084;6.352;2022-09-13T00:08:09;39.72;;;28.23;;
66628;SDS011;53532;53.084;6.352;2022-09-13T00:10:35;37.33;;;28.08;;
66628;SDS011;53532;53.084;6.352;2022-09-13T00:13:03;42.70;;;29.30;;
66628;SDS011;53532;53.084;6.352;2022-09-13T00:15:29;38.63;;;29.20;;
66628;SDS011;53532;53.084;6.352;2022-09-13T00:17:55;41.13;;;28.95;;
66628;SDS011;53532;53.084;6.352;2022-09-13T00:20:21;41.97;;;28.95;;
66628;SDS011;53532;53.084;6.352;2022-09-13T00:22:48;41.03;;;29.30;;
66628;SDS011;53532;53.084;6.352;2022-09-13T00:25:14;41.25;;;28.75;;
66628;SDS011;53532;53.084;6.352;2022-09-13T00:27:40;39.95;;;28.17;;
66628;SDS011;53532;53.084;6.352;2022-09-13T00:30:08;40.63;;;28.73;;
66628;SDS011;53532;53.084;6.352;2022-09-13T00:32:34;40.40;;;28.63;;
66628;SDS011;53532;53.084;6.352;2022-09-13T00:35:00;52.47;;;29.40;;
66628;SDS011;53532;53.084;6.352;2022-09-13T00:37:27;44.20;;;28.33;;
66628;SDS011;53532;53.084;6.352;2022-09-13T00:39:54;39.80;;;27.52;;
66628;SDS011;53532;53.084;6.352;2022-09-13T00:42:23;41.65;;;28.35;;
66628;SDS011;53532;53.084;6.352;2022-09-13T00:44:53;38.33;;;27.13;;
66628;SDS011;53532;53.084;6.352;2022-09-13T00:47:24;39.58;;;26.27;;
66628;SDS011;53532;53.084;6.352;2022-09-13T00:49:52;33.17;;;24.35;;
66628;SDS011;53532;53.084;6.352;2022-09-13T00:52:19;35.45;;;25.92;;
66628;SDS011;53532;53.084;6.352;2022-09-13T00:54:49;35.08;;;24.55;;
66628;SDS011;53532;53.084;6.352;2022-09-13T00:57:17;36.45;;;26.13;;
66628;SDS011;53532;53.084;6.352;2022-09-13T00:59:45;36.45;;;24.65;;
66628;SDS011;53532;53.084;6.352;2022-09-13T01:02:13;29.02;;;21.83;;
66628;SDS011;53532;53.084;6.352;2022-09-13T01:04:40;33.67;;;23.70;;
66628;SDS011;53532;53.084;6.352;2022-09-13T01:07:08;35.38;;;23.75;;
66628;SDS011;53532;53.084;6.352;2022-09-13T01:09:35;34.42;;;23.48;;
66628;SDS011;53532;53.084;6.352;2022-09-13T01:12:02;31.48;;;22.92;;
66628;SDS011;53532;53.084;6.352;2022-09-13T01:14:32;37.53;;;24.23;;
66628;SDS011;53532;53.084;6.352;2022-09-13T01:16:58;33.05;;;23.40;;
66628;SDS011;53532;53.084;6.352;2022-09-13T01:19:25;35.90;;;23.40;;
66628;SDS011;53532;53.084;6.352;2022-09-13T01:22:01;35.47;;;23.33;;
66628;SDS011;53532;53.084;6.352;2022-09-13T01:27:34;37.42;;;23.10;;
66628;SDS011;53532;53.084;6.352;2022-09-13T01:30:07;34.40;;;22.73;;
66628;SDS011;53532;53.084;6.352;2022-09-13T01:32:37;32.95;;;22.15;;
66628;SDS011;53532;53.084;6.352;2022-09-13T01:35:09;32.85;;;22.05;;
66628;SDS011;53532;53.084;6.352;2022-09-13T01:37:43;38.00;;;23.10;;
66628;SDS011;53532;53.084;6.352;2022-09-13T01:40:14;40.15;;;23.83;;
66628;SDS011;53532;53.084;6.352;2022-09-13T01:42:46;30.88;;;21.73;;
66628;SDS011;53532;53.084;6.352;2022-09-13T01:45:18;31.55;;;22.20;;
66628;SDS011;53532;53.084;6.352;2022-09-13T01:47:48;33.00;;;21.95;;
66628;SDS011;53532;53.084;6.352;2022-09-13T01:50:17;34.53;;;22.23;;
66628;SDS011;53532;53.084;6.352;2022-09-13T01:52:48;31.98;;;21.98;;
66628;SDS011;53532;53.084;6.352;2022-09-13T01:55:17;31.45;;;22.70;;
66628;SDS011;53532;53.084;6.352;2022-09-13T01:57:47;37.47;;;21.92;;
66628;SDS011;53532;53.084;6.352;2022-09-13T02:00:17;36.00;;;21.10;;
66628;SDS011;53532;53.084;6.352;2022-09-13T02:02:45;28.75;;;20.33;;
66628;SDS011;53532;53.084;6.352;2022-09-13T02:05:14;31.23;;;21.17;;
66628;SDS011;53532;53.084;6.352;2022-09-13T02:07:42;30.58;;;19.83;;
66628;SDS011;53532;53.084;6.352;2022-09-13T02:10:13;28.45;;;19.88;;
66628;SDS011;53532;53.084;6.352;2022-09-13T02:12:39;29.88;;;19.70;;
66628;SDS011;53532;53.084;6.352;2022-09-13T02:15:08;34.38;;;20.95;;
66628;SDS011;53532;53.084;6.352;2022-09-13T02:17:37;27.77;;;20.50;;
66628;SDS011;53532;53.084;6.352;2022-09-13T02:20:05;30.65;;;20.30;;
66628;SDS011;53532;53.084;6.352;2022-09-13T02:22:34;31.55;;;20.48;;
66628;SDS011;53532;53.084;6.352;2022-09-13T02:25:04;30.50;;;20.50;;
66628;SDS011;53532;53.084;6.352;2022-09-13T02:27:32;31.45;;;20.50;;
66628;SDS011;53532;53.084;6.352;2022-09-13T02:30:00;31.55;;;20.83;;
66628;SDS011;53532;53.084;6.352;2022-09-13T02:32:28;29.85;;;20.48;;
66628;SDS011;53532;53.084;6.352;2022-09-13T02:34:57;32.80;;;21.23;;
66628;SDS011;53532;53.084;6.352;2022-09-13T02:37:24;35.15;;;21.27;;
66628;SDS011;53532;53.084;6.352;2022-09-13T02:39:53;31.60;;;20.88;;
66628;SDS011;53532;53.084;6.352;2022-09-13T02:42:21;29.05;;;19.67;;
66628;SDS011;53532;53.084;6.352;2022-09-13T02:44:49;36.78;;;22.00;;
66628;SDS011;53532;53.084;6.352;2022-09-13T02:47:23;34.08;;;22.13;;
66628;SDS011;53532;53.084;6.352;2022-09-13T02:49:54;33.97;;;21.27;;
66628;SDS011;53532;53.084;6.352;2022-09-13T02:52:27;34.60;;;22.10;;
66628;SDS011;53532;53.084;6.352;2022-09-13T02:54:58;33.58;;;22.77;;
66628;SDS011;53532;53.084;6.352;2022-09-13T02:57:29;41.45;;;23.35;;
66628;SDS011;53532;53.084;6.352;2022-09-13T02:59:57;48.63;;;22.95;;
66628;SDS011;53532;53.084;6.352;2022-09-13T03:02:24;39.92;;;22.13;;
66628;SDS011;53532;53.084;6.352;2022-09-13T03:04:52;46.00;;;23.38;;
66628;SDS011;53532;53.084;6.352;2022-09-13T03:07:18;35.38;;;23.48;;
66628;SDS011;53532;53.084;6.352;2022-09-13T03:09:47;35.80;;;23.20;;
66628;SDS011;53532;53.084;6.352;2022-09-13T03:12:23;34.88;;;23.02;;
66628;SDS011;53532;53.084;6.352;2022-09-13T03:14:55;31.35;;;21.90;;
66628;SDS011;53532;53.084;6.352;2022-09-13T03:17:29;47.33;;;23.52;;
66628;SDS011;53532;53.084;6.352;2022-09-13T03:20:02;37.28;;;22.65;;
66628;SDS011;53532;53.084;6.352;2022-09-13T03:22:38;34.30;;;20.65;;
66628;SDS011;53532;53.084;6.352;2022-09-13T03:25:11;35.50;;;20.25;;
66628;SDS011;53532;53.084;6.352;2022-09-13T03:27:40;45.88;;;21.58;;
66628;SDS011;53532;53.084;6.352;2022-09-13T03:30:09;45.08;;;20.90;;
66628;SDS011;53532;53.084;6.352;2022-09-13T03:32:40;29.50;;;18.40;;
66628;SDS011;53532;53.084;6.352;2022-09-13T03:35:14;27.00;;;17.58;;
66628;SDS011;53532;53.084;6.352;2022-09-13T03:37:43;25.80;;;15.13;;
66628;SDS011;53532;53.084;6.352;2022-09-13T03:40:15;23.40;;;14.65;;
66628;SDS011;53532;53.084;6.352;2022-09-13T03:42:44;20.63;;;13.93;;
66628;SDS011;53532;53.084;6.352;2022-09-13T03:45:11;19.42;;;12.27;;
66628;SDS011;53532;53.084;6.352;2022-09-13T03:47:39;18.73;;;11.88;;
66628;SDS011;53532;53.084;6.352;2022-09-13T03:50:06;15.40;;;10.50;;
66628;SDS011;53532;53.084;6.352;2022-09-13T03:52:33;16.80;;;10.57;;
66628;SDS011;53532;53.084;6.352;2022-09-13T03:55:00;16.70;;;9.27;;
66628;SDS011;53532;53.084;6.352;2022-09-13T03:57:28;14.25;;;8.35;;
66628;SDS011;53532;53.084;6.352;2022-09-13T03:59:55;15.05;;;7.97;;
66628;SDS011;53532;53.084;6.352;2022-09-13T04:02:21;13.13;;;7.75;;
66628;SDS011;53532;53.084;6.352;2022-09-13T04:04:48;12.43;;;8.10;;
66628;SDS011;53532;53.084;6.352;2022-09-13T04:07:15;14.00;;;8.05;;
66628;SDS011;53532;53.084;6.352;2022-09-13T04:09:41;17.05;;;8.90;;
66628;SDS011;53532;53.084;6.352;2022-09-13T04:12:08;13.90;;;8.05;;
66628;SDS011;53532;53.084;6.352;2022-09-13T04:14:36;15.15;;;8.02;;
66628;SDS011;53532;53.084;6.352;2022-09-13T04:17:02;12.25;;;7.88;;
66628;SDS011;53532;53.084;6.352;2022-09-13T04:19:28;16.88;;;8.77;;
66628;SDS011;53532;53.084;6.352;2022-09-13T04:21:55;12.50;;;7.47;;
66628;SDS011;53532;53.084;6.352;2022-09-13T04:24:23;12.18;;;8.02;;
66628;SDS011;53532;53.084;6.352;2022-09-13T04:26:49;13.02;;;8.07;;
66628;SDS011;53532;53.084;6.352;2022-09-13T04:29:17;13.60;;;8.07;;
66628;SDS011;53532;53.084;6.352;2022-09-13T04:31:44;10.98;;;7.75;;
66628;SDS011;53532;53.084;6.352;2022-09-13T04:34:11;12.30;;;7.68;;
66628;SDS011;53532;53.084;6.352;2022-09-13T04:36:37;11.68;;;7.05;;
66628;SDS011;53532;53.084;6.352;2022-09-13T04:39:04;13.55;;;6.78;;
66628;SDS011;53532;53.084;6.352;2022-09-13T04:41:30;11.50;;;6.38;;
66628;SDS011;53532;53.084;6.352;2022-09-13T04:43:58;11.10;;;6.07;;
66628;SDS011;53532;53.084;6.352;2022-09-13T04:46:25;10.00;;;5.03;;
66628;SDS011;53532;53.084;6.352;2022-09-13T04:48:53;8.50;;;4.65;;
66628;SDS011;53532;53.084;6.352;2022-09-13T04:51:19;8.63;;;4.40;;
66628;SDS011;53532;53.084;6.352;2022-09-13T04:53:50;8.75;;;4.53;;
66628;SDS011;53532;53.084;6.352;2022-09-13T04:56:18;10.85;;;4.38;;
66628;SDS011;53532;53.084;6.352;2022-09-13T04:58:45;9.45;;;4.13;;
66628;SDS011;53532;53.084;6.352;2022-09-13T05:01:11;10.38;;;3.97;;
66628;SDS011;53532;53.084;6.352;2022-09-13T05:03:37;7.88;;;3.80;;
66628;SDS011;53532;53.084;6.352;2022-09-13T05:06:05;9.95;;;3.88;;
66628;SDS011;53532;53.084;6.352;2022-09-13T05:08:32;10.75;;;4.20;;
66628;SDS011;53532;53.084;6.352;2022-09-13T05:10:59;8.27;;;3.90;;
66628;SDS011;53532;53.084;6.352;2022-09-13T05:13:25;8.10;;;4.10;;
66628;SDS011;53532;53.084;6.352;2022-09-13T05:15:53;8.63;;;3.70;;
66628;SDS011;53532;53.084;6.352;2022-09-13T05:18:20;8.98;;;3.80;;
66628;SDS011;53532;53.084;6.352;2022-09-13T05:20:46;9.80;;;3.78;;
66628;SDS011;53532;53.084;6.352;2022-09-13T05:23:13;11.07;;;3.60;;
66628;SDS011;53532;53.084;6.352;2022-09-13T05:25:39;8.77;;;3.30;;
66628;SDS011;53532;53.084;6.352;2022-09-13T05:28:05;7.15;;;3.40;;
66628;SDS011;53532;53.084;6.352;2022-09-13T05:30:31;9.00;;;3.50;;
66628;SDS011;53532;53.084;6.352;2022-09-13T05:32:57;8.15;;;3.70;;
66628;SDS011;53532;53.084;6.352;2022-09-13T05:35:24;9.25;;;3.53;;
66628;SDS011;53532;53.084;6.352;2022-09-13T05:37:50;9.82;;;3.30;;
66628;SDS011;53532;53.084;6.352;2022-09-13T05:40:17;9.95;;;3.42;;
66628;SDS011;53532;53.084;6.352;2022-09-13T05:42:43;7.18;;;3.60;;
66628;SDS011;53532;53.084;6.352;2022-09-13T05:45:09;7.53;;;3.20;;
66628;SDS011;53532;53.084;6.352;2022-09-13T05:47:36;9.85;;;3.40;;
66628;SDS011;53532;53.084;6.352;2022-09-13T05:50:02;9.32;;;3.20;;
66628;SDS011;53532;53.084;6.352;2022-09-13T05:52:28;8.55;;;3.33;;
66628;SDS011;53532;53.084;6.352;2022-09-13T05:54:54;9.57;;;3.22;;
66628;SDS011;53532;53.084;6.352;2022-09-13T05:57:22;10.45;;;3.70;;
66628;SDS011;53532;53.084;6.352;2022-09-13T05:59:48;10.10;;;3.30;;
66628;SDS011;53532;53.084;6.352;2022-09-13T06:02:14;11.60;;;3.38;;
66628;SDS011;53532;53.084;6.352;2022-09-13T06:04:40;9.77;;;3.30;;
66628;SDS011;53532;53.084;6.352;2022-09-13T06:07:09;8.45;;;3.33;;
66628;SDS011;53532;53.084;6.352;2022-09-13T06:09:35;10.18;;;3.47;;
66628;SDS011;53532;53.084;6.352;2022-09-13T06:12:02;9.45;;;3.33;;
66628;SDS011;53532;53.084;6.352;2022-09-13T06:14:30;10.25;;;3.88;;
66628;SDS011;53532;53.084;6.352;2022-09-13T06:16:56;10.50;;;3.97;;
66628;SDS011;53532;53.084;6.352;2022-09-13T06:19:22;12.68;;;4.25;;
66628;SDS011;53532;53.084;6.352;2022-09-13T06:21:49;12.90;;;3.85;;
66628;SDS011;53532;53.084;6.352;2022-09-13T06:24:15;8.25;;;3.60;;
66628;SDS011;53532;53.084;6.352;2022-09-13T06:26:41;11.65;;;3.90;;
66628;SDS011;53532;53.084;6.352;2022-09-13T06:29:09;9.55;;;3.78;;
66628;SDS011;53532;53.084;6.352;2022-09-13T06:31:37;9.73;;;4.07;;
66628;SDS011;53532;53.084;6.352;2022-09-13T06:34:09;10.25;;;4.10;;
66628;SDS011;53532;53.084;6.352;2022-09-13T06:36:37;7.05;;;3.85;;
66628;SDS011;53532;53.084;6.352;2022-09-13T06:39:03;9.13;;;3.30;;
66628;SDS011;53532;53.084;6.352;2022-09-13T06:41:30;9.27;;;3.25;;
66628;SDS011;53532;53.084;6.352;2022-09-13T06:43:57;10.05;;;3.63;;
66628;SDS011;53532;53.084;6.352;2022-09-13T06:46:24;10.25;;;3.47;;
66628;SDS011;53532;53.084;6.352;2022-09-13T06:48:52;8.30;;;3.00;;
66628;SDS011;53532;53.084;6.352;2022-09-13T06:51:19;8.00;;;2.90;;
66628;SDS011;53532;53.084;6.352;2022-09-13T06:53:46;11.63;;;3.20;;
66628;SDS011;53532;53.084;6.352;2022-09-13T06:56:13;10.35;;;2.92;;
66628;SDS011;53532;53.084;6.352;2022-09-13T06:58:40;10.35;;;3.05;;
66628;SDS011;53532;53.084;6.352;2022-09-13T07:01:08;8.70;;;2.70;;
66628;SDS011;53532;53.084;6.352;2022-09-13T07:03:35;5.10;;;2.30;;
66628;SDS011;53532;53.084;6.352;2022-09-13T07:06:07;13.20;;;2.67;;
66628;SDS011;53532;53.084;6.352;2022-09-13T07:08:33;5.72;;;2.40;;
66628;SDS011;53532;53.084;6.352;2022-09-13T07:10:59;9.38;;;2.30;;
66628;SDS011;53532;53.084;6.352;2022-09-13T07:13:25;9.73;;;2.50;;
66628;SDS011;53532;53.084;6.352;2022-09-13T07:15:51;8.80;;;2.55;;
66628;SDS011;53532;53.084;6.352;2022-09-13T07:18:17;7.70;;;2.13;;
66628;SDS011;53532;53.084;6.352;2022-09-13T07:20:44;6.65;;;2.55;;
66628;SDS011;53532;53.084;6.352;2022-09-13T07:23:11;7.82;;;2.50;;
66628;SDS011;53532;53.084;6.352;2022-09-13T07:25:38;8.30;;;2.17;;
66628;SDS011;53532;53.084;6.352;2022-09-13T07:28:04;8.55;;;1.95;;
66628;SDS011;53532;53.084;6.352;2022-09-13T07:30:30;7.30;;;1.92;;
66628;SDS011;53532;53.084;6.352;2022-09-13T07:32:56;7.60;;;1.80;;
66628;SDS011;53532;53.084;6.352;2022-09-13T07:35:22;7.20;;;1.75;;
66628;SDS011;53532;53.084;6.352;2022-09-13T07:37:49;8.10;;;1.65;;
66628;SDS011;53532;53.084;6.352;2022-09-13T07:40:16;10.50;;;2.30;;
66628;SDS011;53532;53.084;6.352;2022-09-13T07:42:42;7.22;;;2.03;;
66628;SDS011;53532;53.084;6.352;2022-09-13T07:45:09;6.57;;;1.67;;
66628;SDS011;53532;53.084;6.352;2022-09-13T07:47:37;6.60;;;1.65;;
66628;SDS011;53532;53.084;6.352;2022-09-13T07:50:03;7.72;;;1.90;;
66628;SDS011;53532;53.084;6.352;2022-09-13T07:52:29;5.70;;;1.50;;
66628;SDS011;53532;53.084;6.352;2022-09-13T07:54:55;7.75;;;1.60;;
66628;SDS011;53532;53.084;6.352;2022-09-13T07:57:24;8.65;;;2.05;;
66628;SDS011;53532;53.084;6.352;2022-09-13T07:59:50;5.30;;;1.40;;
66628;SDS011;53532;53.084;6.352;2022-09-13T08:02:16;8.70;;;1.73;;
66628;SDS011;53532;53.084;6.352;2022-09-13T08:04:42;6.70;;;1.40;;
66628;SDS011;53532;53.084;6.352;2022-09-13T08:07:08;11.05;;;1.60;;
66628;SDS011;53532;53.084;6.352;2022-09-13T08:09:34;6.70;;;1.40;;
66628;SDS011;53532;53.084;6.352;2022-09-13T08:12:01;8.05;;;1.52;;
66628;SDS011;53532;53.084;6.352;2022-09-13T08:14:28;6.32;;;1.27;;
66628;SDS011;53532;53.084;6.352;2022-09-13T08:16:54;6.20;;;1.30;;
66628;SDS011;53532;53.084;6.352;2022-09-13T08:19:21;6.18;;;1.25;;
66628;SDS011;53532;53.084;6.352;2022-09-13T08:21:47;7.45;;;1.15;;
66628;SDS011;53532;53.084;6.352;2022-09-13T08:24:14;4.97;;;1.10;;
66628;SDS011;53532;53.084;6.352;2022-09-13T08:26:40;6.53;;;1.13;;
66628;SDS011;53532;53.084;6.352;2022-09-13T08:29:06;6.65;;;1.38;;
66628;SDS011;53532;53.084;6.352;2022-09-13T08:31:34;5.40;;;1.20;;
66628;SDS011;53532;53.084;6.352;2022-09-13T08:34:00;5.80;;;1.10;;
66628;SDS011;53532;53.084;6.352;2022-09-13T08:36:27;7.13;;;1.58;;
66628;SDS011;53532;53.084;6.352;2022-09-13T08:38:54;8.18;;;1.35;;
66628;SDS011;53532;53.084;6.352;2022-09-13T08:41:43;4.88;;;1.10;;
66628;SDS011;53532;53.084;6.352;2022-09-13T08:44:15;9.25;;;1.30;;
66628;SDS011;53532;53.084;6.352;2022-09-13T08:46:44;7.85;;;1.50;;
66628;SDS011;53532;53.084;6.352;2022-09-13T08:49:11;6.72;;;1.30;;
66628;SDS011;53532;53.084;6.352;2022-09-13T08:51:44;5.30;;;0.98;;
66628;SDS011;53532;53.084;6.352;2022-09-13T08:54:12;8.73;;;1.30;;
66628;SDS011;53532;53.084;6.352;2022-09-13T08:56:40;8.65;;;1.20;;
66628;SDS011;53532;53.084;6.352;2022-09-13T08:59:21;5.80;;;1.00;;
66628;SDS011;53532;53.084;6.352;2022-09-13T09:01:57;4.22;;;0.90;;
66628;SDS011;53532;53.084;6.352;2022-09-13T09:04:37;6.88;;;1.30;;
66628;SDS011;53532;53.084;6.352;2022-09-13T09:07:10;10.30;;;1.30;;
66628;SDS011;53532;53.084;6.352;2022-09-13T09:09:41;6.20;;;0.90;;
66628;SDS011;53532;53.084;6.352;2022-09-13T09:12:13;5.85;;;0.90;;
66628;SDS011;53532;53.084;6.352;2022-09-13T09:14:44;5.55;;;0.80;;
66628;SDS011;53532;53.084;6.352;2022-09-13T09:17:17;5.93;;;1.30;;
66628;SDS011;53532;53.084;6.352;2022-09-13T09:19:47;8.07;;;1.27;;
66628;SDS011;53532;53.084;6.352;2022-09-13T09:22:18;5.93;;;1.17;;
66628;SDS011;53532;53.084;6.352;2022-09-13T09:24:49;5.00;;;1.10;;
66628;SDS011;53532;53.084;6.352;2022-09-13T09:27:18;7.32;;;1.30;;
66628;SDS011;53532;53.084;6.352;2022-09-13T09:29:44;4.95;;;1.10;;
66628;SDS011;53532;53.084;6.352;2022-09-13T09:32:17;4.65;;;0.82;;
66628;SDS011;53532;53.084;6.352;2022-09-13T09:34:47;8.52;;;1.27;;
66628;SDS011;53532;53.084;6.352;2022-09-13T09:37:18;7.57;;;1.40;;
66628;SDS011;53532;53.084;6.352;2022-09-13T09:39:45;5.55;;;1.13;;
66628;SDS011;53532;53.084;6.352;2022-09-13T09:42:11;4.75;;;0.95;;
66628;SDS011;53532;53.084;6.352;2022-09-13T09:44:38;6.28;;;1.17;;
66628;SDS011;53532;53.084;6.352;2022-09-13T09:47:06;5.57;;;1.00;;
66628;SDS011;53532;53.084;6.352;2022-09-13T09:49:38;5.82;;;1.08;;
66628;SDS011;53532;53.084;6.352;2022-09-13T09:52:27;5.18;;;1.00;;
66628;SDS011;53532;53.084;6.352;2022-09-13T09:54:55;6.63;;;1.20;;
66628;SDS011;53532;53.084;6.352;2022-09-13T10:00:09;6.35;;;1.00;;
66628;SDS011;53532;53.084;6.352;2022-09-13T10:02:35;4.78;;;1.00;;
66628;SDS011;53532;53.084;6.352;2022-09-13T10:05:09;9.30;;;1.75;;
66628;SDS011;53532;53.084;6.352;2022-09-13T10:07:37;5.80;;;1.13;;
66628;SDS011;53532;53.084;6.352;2022-09-13T10:10:04;6.28;;;1.10;;
66628;SDS011;53532;53.084;6.352;2022-09-13T10:12:32;8.15;;;1.20;;
66628;SDS011;53532;53.084;6.352;2022-09-13T10:15:10;6.93;;;1.15;;
66628;SDS011;53532;53.084;6.352;2022-09-13T10:17:40;5.97;;;1.27;;
66628;SDS011;53532;53.084;6.352;2022-09-13T10:20:19;4.03;;;1.10;;
66628;SDS011;53532;53.084;6.352;2022-09-13T10:25:31;9.05;;;1.20;;
66628;SDS011;53532;53.084;6.352;2022-09-13T10:28:01;8.00;;;1.25;;
66628;SDS011;53532;53.084;6.352;2022-09-13T10:30:30;9.30;;;1.10;;
66628;SDS011;53532;53.084;6.352;2022-09-13T10:32:57;6.20;;;1.00;;
66628;SDS011;53532;53.084;6.352;2022-09-13T10:35:25;6.00;;;1.05;;
66628;SDS011;53532;53.084;6.352;2022-09-13T10:37:51;5.22;;;0.98;;
66628;SDS011;53532;53.084;6.352;2022-09-13T10:40:19;5.30;;;1.35;;
66628;SDS011;53532;53.084;6.352;2022-09-13T10:42:49;7.75;;;1.23;;
66628;SDS011;53532;53.084;6.352;2022-09-13T10:45:18;6.78;;;1.35;;
66628;SDS011;53532;53.084;6.352;2022-09-13T10:47:46;8.43;;;1.38;;
66628;SDS011;53532;53.084;6.352;2022-09-13T10:50:18;6.88;;;1.15;;
66628;SDS011;53532;53.084;6.352;2022-09-13T10:52:46;10.13;;;1.75;;
66628;SDS011;53532;53.084;6.352;2022-09-13T10:55:26;4.53;;;1.05;;
66628;SDS011;53532;53.084;6.352;2022-09-13T10:57:54;7.15;;;1.15;;
66628;SDS011;53532;53.084;6.352;2022-09-13T11:00:21;6.47;;;1.08;;
66628;SDS011;53532;53.084;6.352;2022-09-13T11:02:54;6.25;;;1.00;;
66628;SDS011;53532;53.084;6.352;2022-09-13T11:05:25;5.47;;;1.23;;
66628;SDS011;53532;53.084;6.352;2022-09-13T11:10:43;4.63;;;1.00;;
66628;SDS011;53532;53.084;6.352;2022-09-13T11:13:13;5.72;;;1.25;;
66628;SDS011;53532;53.084;6.352;2022-09-13T11:15:46;4.27;;;0.90;;
66628;SDS011;53532;53.084;6.352;2022-09-13T11:18:19;5.85;;;1.00;;
66628;SDS011;53532;53.084;6.352;2022-09-13T11:20:51;6.03;;;1.10;;
66628;SDS011;53532;53.084;6.352;2022-09-13T11:23:37;3.88;;;1.00;;
66628;SDS011;53532;53.084;6.352;2022-09-13T11:26:18;6.13;;;1.08;;
66628;SDS011;53532;53.084;6.352;2022-09-13T11:28:50;5.20;;;0.95;;
66628;SDS011;53532;53.084;6.352;2022-09-13T11:33:49;6.40;;;1.00;;
66628;SDS011;53532;53.084;6.352;2022-09-13T11:36:23;5.28;;;1.00;;
66628;SDS011;53532;53.084;6.352;2022-09-13T11:38:54;7.72;;;1.02;;
66628;SDS011;53532;53.084;6.352;2022-09-13T11:41:25;5.82;;;1.10;;
66628;SDS011;53532;53.084;6.352;2022-09-13T11:44:01;5.78;;;0.90;;
66628;SDS011;53532;53.084;6.352;2022-09-13T11:46:35;7.50;;;0.90;;
66628;SDS011;53532;53.084;6.352;2022-09-13T11:51:47;4.45;;;0.80;;
66628;SDS011;53532;53.084;6.352;2022-09-13T11:54:18;4.45;;;1.00;;
66628;SDS011;53532;53.084;6.352;2022-09-13T11:56:51;3.97;;;0.80;;
66628;SDS011;53532;53.084;6.352;2022-09-13T11:59:20;5.60;;;1.02;;
66628;SDS011;53532;53.084;6.352;2022-09-13T12:01:48;5.85;;;1.08;;
66628;SDS011;53532;53.084;6.352;2022-09-13T12:04:17;5.78;;;1.33;;
66628;SDS011;53532;53.084;6.352;2022-09-13T12:06:47;8.48;;;1.10;;
66628;SDS011;53532;53.084;6.352;2022-09-13T12:09:16;6.70;;;1.15;;
66628;SDS011;53532;53.084;6.352;2022-09-13T12:11:44;5.90;;;0.90;;
66628;SDS011;53532;53.084;6.352;2022-09-13T12:14:14;3.97;;;0.80;;
66628;SDS011;53532;53.084;6.352;2022-09-13T12:16:42;7.95;;;1.10;;
66628;SDS011;53532;53.084;6.352;2022-09-13T12:19:10;8.77;;;1.20;;
66628;SDS011;53532;53.084;6.352;2022-09-13T12:21:39;7.45;;;1.15;;
66628;SDS011;53532;53.084;6.352;2022-09-13T12:24:07;7.35;;;1.27;;
66628;SDS011;53532;53.084;6.352;2022-09-13T12:26:40;7.78;;;1.20;;
66628;SDS011;53532;53.084;6.352;2022-09-13T12:29:10;8.32;;;1.27;;
66628;SDS011;53532;53.084;6.352;2022-09-13T12:31:40;8.77;;;1.40;;
66628;SDS011;53532;53.084;6.352;2022-09-13T12:34:06;6.28;;;1.08;;
66628;SDS011;53532;53.084;6.352;2022-09-13T12:36:41;6.50;;;1.20;;
66628;SDS011;53532;53.084;6.352;2022-09-13T12:39:18;6.25;;;1.00;;
66628;SDS011;53532;53.084;6.352;2022-09-13T12:41:52;5.93;;;1.02;;
66628;SDS011;53532;53.084;6.352;2022-09-13T12:44:24;6.82;;;1.10;;
66628;SDS011;53532;53.084;6.352;2022-09-13T12:47:04;8.27;;;1.35;;
66628;SDS011;53532;53.084;6.352;2022-09-13T12:52:05;7.70;;;1.17;;
66628;SDS011;53532;53.084;6.352;2022-09-13T12:54:41;4.20;;;1.05;;
66628;SDS011;53532;53.084;6.352;2022-09-13T12:57:15;6.57;;;1.10;;
66628;SDS011;53532;53.084;6.352;2022-09-13T12:59:51;6.15;;;1.20;;
66628;SDS011;53532;53.084;6.352;2022-09-13T13:02:26;8.52;;;1.15;;
66628;SDS011;53532;53.084;6.352;2022-09-13T13:04:54;7.13;;;1.20;;
66628;SDS011;53532;53.084;6.352;2022-09-13T13:07:21;6.40;;;1.35;;
66628;SDS011;53532;53.084;6.352;2022-09-13T13:09:49;8.35;;;1.40;;
66628;SDS011;53532;53.084;6.352;2022-09-13T13:12:24;8.82;;;1.30;;
66628;SDS011;53532;53.084;6.352;2022-09-13T13:14:51;6.28;;;1.23;;
66628;SDS011;53532;53.084;6.352;2022-09-13T13:17:36;9.07;;;1.45;;
66628;SDS011;53532;53.084;6.352;2022-09-13T13:22:50;6.50;;;1.05;;
66628;SDS011;53532;53.084;6.352;2022-09-13T13:25:29;9.23;;;1.30;;
66628;SDS011;53532;53.084;6.352;2022-09-13T13:27:56;7.97;;;1.00;;
66628;SDS011;53532;53.084;6.352;2022-09-13T13:30:33;8.40;;;1.30;;
66628;SDS011;53532;53.084;6.352;2022-09-13T13:33:04;10.13;;;1.25;;
66628;SDS011;53532;53.084;6.352;2022-09-13T13:40:38;8.30;;;1.23;;
66628;SDS011;53532;53.084;6.352;2022-09-13T13:43:14;5.22;;;1.05;;
66628;SDS011;53532;53.084;6.352;2022-09-13T13:45:54;6.20;;;1.20;;
66628;SDS011;53532;53.084;6.352;2022-09-13T13:48:34;7.55;;;1.33;;
66628;SDS011;53532;53.084;6.352;2022-09-13T13:51:14;7.22;;;1.10;;
66628;SDS011;53532;53.084;6.352;2022-09-13T13:53:41;11.65;;;1.40;;
66628;SDS011;53532;53.084;6.352;2022-09-13T13:56:14;6.72;;;1.33;;
66628;SDS011;53532;53.084;6.352;2022-09-13T13:58:44;7.53;;;1.08;;
66628;SDS011;53532;53.084;6.352;2022-09-13T14:01:13;7.72;;;1.30;;
66628;SDS011;53532;53.084;6.352;2022-09-13T14:03:49;5.28;;;1.15;;
66628;SDS011;53532;53.084;6.352;2022-09-13T14:06:18;6.57;;;1.40;;
66628;SDS011;53532;53.084;6.352;2022-09-13T14:08:51;6.28;;;1.05;;
66628;SDS011;53532;53.084;6.352;2022-09-13T14:11:22;8.73;;;1.10;;
66628;SDS011;53532;53.084;6.352;2022-09-13T14:13:59;6.53;;;1.20;;
66628;SDS011;53532;53.084;6.352;2022-09-13T14:16:36;9.18;;;1.30;;
66628;SDS011;53532;53.084;6.352;2022-09-13T14:19:11;8.05;;;1.20;;
66628;SDS011;53532;53.084;6.352;2022-09-13T14:21:42;10.02;;;1.15;;
66628;SDS011;53532;53.084;6.352;2022-09-13T14:24:16;6.80;;;1.23;;
66628;SDS011;53532;53.084;6.352;2022-09-13T14:26:43;6.18;;;1.20;;
66628;SDS011;53532;53.084;6.352;2022-09-13T14:29:11;9.05;;;1.17;;
66628;SDS011;53532;53.084;6.352;2022-09-13T14:31:40;6.20;;;1.00;;
66628;SDS011;53532;53.084;6.352;2022-09-13T14:34:18;7.70;;;1.10;;
66628;SDS011;53532;53.084;6.352;2022-09-13T14:36:49;8.82;;;1.33;;
66628;SDS011;53532;53.084;6.352;2022-09-13T14:39:15;5.90;;;1.20;;
66628;SDS011;53532;53.084;6.352;2022-09-13T14:41:41;5.10;;;1.00;;
66628;SDS011;53532;53.084;6.352;2022-09-13T14:44:14;5.82;;;1.00;;
66628;SDS011;53532;53.084;6.352;2022-09-13T14:46:42;9.45;;;1.33;;
66628;SDS011;53532;53.084;6.352;2022-09-13T14:49:09;6.03;;;1.13;;
66628;SDS011;53532;53.084;6.352;2022-09-13T14:51:42;4.97;;;0.90;;
66628;SDS011;53532;53.084;6.352;2022-09-13T14:54:13;7.40;;;1.40;;
66628;SDS011;53532;53.084;6.352;2022-09-13T14:56:41;9.15;;;1.20;;
66628;SDS011;53532;53.084;6.352;2022-09-13T14:59:11;6.93;;;1.00;;
66628;SDS011;53532;53.084;6.352;2022-09-13T15:01:38;7.55;;;1.27;;
66628;SDS011;53532;53.084;6.352;2022-09-13T15:04:04;6.95;;;0.90;;
66628;SDS011;53532;53.084;6.352;2022-09-13T15:06:32;8.80;;;1.10;;
66628;SDS011;53532;53.084;6.352;2022-09-13T15:09:11;5.25;;;0.95;;
66628;SDS011;53532;53.084;6.352;2022-09-13T15:11:40;6.00;;;1.23;;
66628;SDS011;53532;53.084;6.352;2022-09-13T15:14:24;10.57;;;1.42;;
66628;SDS011;53532;53.084;6.352;2022-09-13T15:16:51;7.35;;;1.20;;